Clarinda, Schenck Field (KICL)

NameSchenck Field
CityClarinda
CountryUnited States
ICAOKICL
IATAICL
Altitude304 m
CoordinatesGoogle Map
Live Air TrafficLiveATC.net
METARKICL 101255Z AUTO 00000KT 7SM BKN003 M14/M15 A3035 RMK AO2
2018-12-10 12:55:00 Wind: North (0°) 0 m/s - Visibility: 11265.38 m - Temperature: -14 °C - Dew point: -15 °C - Humidity: 92.2% - Pressure: 1027.77 hPa

Sorry, no flights used the airport in this database.